createdAt,value
2018-06-12T00:00:10.760Z,68.38
2018-06-12T00:02:37.042Z,68.24
2018-06-12T00:05:03.336Z,67.83
2018-06-12T00:07:29.633Z,67.50
2018-06-12T00:09:55.928Z,65.60
2018-06-12T00:12:22.229Z,64.35
2018-06-12T00:14:48.519Z,63.22
2018-06-12T00:17:14.810Z,64.77
2018-06-12T00:19:41.102Z,65.71
2018-06-12T00:22:07.400Z,66.53
2018-06-12T00:24:33.737Z,66.75
2018-06-12T00:27:00.023Z,67.74
2018-06-12T00:29:26.319Z,68.15
2018-06-12T00:31:52.611Z,68.43
2018-06-12T00:34:18.952Z,68.56
2018-06-12T00:36:45.275Z,68.71
2018-06-12T00:39:11.598Z,68.95
2018-06-12T00:41:37.938Z,69.28
2018-06-12T00:44:04.259Z,69.47
2018-06-12T00:46:30.542Z,69.36
2018-06-12T00:48:56.836Z,69.59
2018-06-12T00:51:23.118Z,69.41
2018-06-12T00:53:49.418Z,69.62
2018-06-12T00:56:15.748Z,68.05
2018-06-12T00:58:42.041Z,68.36
2018-06-12T01:01:08.374Z,68.70
2018-06-12T01:03:34.669Z,68.47
2018-06-12T01:06:01.016Z,68.42
2018-06-12T01:08:27.304Z,68.35
2018-06-12T01:10:53.591Z,68.23
2018-06-12T01:13:19.882Z,67.80
2018-06-12T01:15:46.176Z,67.91
2018-06-12T01:18:12.464Z,67.98
2018-06-12T01:20:38.798Z,67.58
2018-06-12T01:23:05.114Z,68.45
2018-06-12T01:25:31.424Z,67.74
2018-06-12T01:27:57.718Z,67.46
2018-06-12T01:30:24.048Z,67.45
2018-06-12T01:32:50.377Z,67.47
2018-06-12T01:35:16.664Z,67.92
2018-06-12T01:37:42.997Z,67.57
2018-06-12T01:40:09.330Z,68.11
2018-06-12T01:42:35.622Z,67.67
2018-06-12T01:45:01.916Z,67.85
2018-06-12T01:47:28.203Z,67.50
2018-06-12T01:49:54.545Z,67.14
2018-06-12T01:52:20.836Z,67.18
2018-06-12T01:54:47.134Z,67.26
2018-06-12T01:57:13.424Z,67.33
2018-06-12T01:59:39.722Z,67.06
2018-06-12T02:02:06.024Z,66.35
2018-06-12T02:04:32.310Z,66.16
2018-06-12T02:06:58.608Z,66.33
2018-06-12T02:09:24.893Z,65.84
2018-06-12T02:11:51.184Z,66.10
2018-06-12T02:14:17.475Z,66.41
2018-06-12T02:16:43.767Z,66.92
2018-06-12T02:19:10.070Z,67.06
2018-06-12T02:21:36.368Z,67.08
2018-06-12T02:24:02.664Z,67.03
2018-06-12T02:26:28.958Z,67.48
2018-06-12T02:28:55.262Z,67.53
2018-06-12T02:31:21.547Z,68.22
2018-06-12T02:33:47.841Z,68.00
2018-06-12T02:36:14.127Z,68.15
2018-06-12T02:38:40.414Z,68.51
2018-06-12T02:41:06.745Z,68.73
2018-06-12T02:43:33.111Z,68.40
2018-06-12T02:45:59.396Z,68.89
2018-06-12T02:48:25.684Z,69.33
2018-06-12T02:50:52.024Z,69.17
2018-06-12T02:53:18.311Z,69.25
2018-06-12T02:55:44.605Z,69.71
2018-06-12T02:58:10.949Z,70.24
2018-06-12T03:00:37.248Z,70.43
2018-06-12T03:03:03.536Z,70.95
2018-06-12T03:05:29.840Z,71.33
2018-06-12T03:07:56.129Z,71.84
2018-06-12T03:10:22.427Z,72.41
2018-06-12T03:12:48.719Z,72.74
2018-06-12T03:15:15.010Z,72.88
2018-06-12T03:17:41.296Z,72.90
2018-06-12T03:20:07.623Z,73.16
2018-06-12T03:22:33.944Z,73.40
2018-06-12T03:25:00.243Z,73.62
2018-06-12T03:27:26.585Z,73.62
2018-06-12T03:29:52.870Z,73.66
2018-06-12T03:32:19.160Z,73.96
2018-06-12T03:34:45.451Z,74.10
2018-06-12T03:37:11.742Z,74.06
2018-06-12T03:39:38.039Z,74.10
2018-06-12T03:42:04.324Z,74.44
2018-06-12T03:44:30.611Z,74.30
2018-06-12T03:46:56.907Z,74.14
2018-06-12T03:49:23.190Z,74.08
2018-06-12T03:51:49.486Z,73.75
2018-06-12T03:54:15.772Z,73.62
2018-06-12T03:56:42.065Z,73.43
2018-06-12T03:59:08.416Z,72.97
2018-06-12T04:01:34.709Z,72.71
2018-06-12T04:04:00.994Z,72.50
2018-06-12T04:06:27.283Z,72.24
2018-06-12T04:08:53.620Z,72.18
2018-06-12T04:11:19.907Z,71.95
2018-06-12T04:13:46.194Z,71.56
2018-06-12T04:16:12.487Z,71.28
2018-06-12T04:18:38.776Z,70.95
2018-06-12T04:21:05.076Z,70.62
2018-06-12T04:23:31.370Z,70.13
2018-06-12T04:25:57.673Z,70.25
2018-06-12T04:28:23.964Z,70.11
2018-06-12T04:30:50.260Z,69.02
2018-06-12T04:33:16.562Z,69.65
2018-06-12T04:35:42.850Z,68.78
2018-06-12T04:38:09.148Z,68.50
2018-06-12T04:40:35.435Z,67.41
2018-06-12T04:43:01.733Z,67.08
2018-06-12T04:45:28.025Z,66.90
2018-06-12T04:47:54.316Z,65.61
2018-06-12T04:50:20.616Z,65.36
2018-06-12T04:52:46.904Z,65.02
2018-06-12T04:55:13.198Z,64.53
2018-06-12T04:57:39.494Z,63.52
2018-06-12T05:00:05.792Z,63.08
2018-06-12T05:02:32.130Z,62.87
2018-06-12T05:04:58.481Z,62.40
2018-06-12T05:07:24.819Z,62.25
2018-06-12T05:09:51.108Z,62.14
2018-06-12T05:12:17.470Z,61.44
2018-06-12T05:14:43.800Z,61.19
2018-06-12T05:17:10.127Z,60.77
2018-06-12T05:19:36.459Z,60.12
2018-06-12T05:22:02.749Z,59.11
2018-06-12T05:24:29.075Z,58.14
2018-06-12T05:26:55.417Z,57.21
2018-06-12T05:29:21.721Z,56.78
2018-06-12T05:31:48.008Z,56.19
2018-06-12T05:34:14.294Z,54.28
2018-06-12T05:36:40.628Z,50.88
2018-06-12T05:39:06.923Z,50.57
2018-06-12T05:41:33.211Z,48.33
2018-06-12T05:43:59.509Z,47.71
2018-06-12T05:46:25.831Z,46.42
2018-06-12T05:48:52.116Z,44.66
2018-06-12T05:51:18.454Z,43.54
2018-06-12T05:53:44.754Z,42.66
2018-06-12T05:56:11.056Z,43.47
2018-06-12T05:58:37.385Z,43.81
2018-06-12T06:01:03.686Z,44.36
2018-06-12T06:03:29.974Z,42.79
2018-06-12T06:05:56.300Z,41.99
2018-06-12T06:08:22.590Z,42.46
2018-06-12T06:10:48.915Z,42.30
2018-06-12T06:13:15.208Z,42.65
2018-06-12T06:15:41.498Z,42.77
2018-06-12T06:18:07.799Z,42.26
2018-06-12T06:20:34.137Z,42.33
2018-06-12T06:23:00.424Z,42.08
2018-06-12T06:25:26.712Z,41.14
2018-06-12T06:27:53.075Z,41.96
2018-06-12T06:30:19.364Z,41.67
2018-06-12T06:32:45.684Z,41.61
2018-06-12T06:35:11.958Z,41.64
2018-06-12T06:37:38.252Z,42.33
2018-06-12T06:40:04.540Z,43.74
2018-06-12T06:42:30.831Z,44.92
2018-06-12T06:44:57.165Z,43.30
2018-06-12T06:47:23.467Z,44.06
2018-06-12T06:49:49.755Z,44.21
2018-06-12T06:52:16.048Z,43.35
2018-06-12T06:54:42.399Z,43.65
2018-06-12T06:57:08.729Z,43.40
2018-06-12T06:59:35.009Z,43.59
2018-06-12T07:02:01.291Z,43.61
2018-06-12T07:04:27.578Z,42.19
2018-06-12T07:06:53.868Z,41.70
2018-06-12T07:09:20.160Z,40.68
2018-06-12T07:11:46.449Z,40.72
2018-06-12T07:14:12.741Z,40.80
2018-06-12T07:16:39.033Z,40.36
2018-06-12T07:19:05.325Z,39.06
2018-06-12T07:21:31.620Z,40.64
2018-06-12T07:23:57.936Z,40.30
2018-06-12T07:26:24.230Z,40.55
2018-06-12T07:28:50.527Z,39.55
2018-06-12T07:31:16.863Z,39.45
2018-06-12T07:33:43.150Z,38.89
2018-06-12T07:36:09.447Z,39.00
2018-06-12T07:38:35.749Z,39.28
2018-06-12T07:41:02.045Z,39.08
2018-06-12T07:43:28.423Z,38.16
2018-06-12T07:45:54.708Z,38.12
2018-06-12T07:48:21.035Z,36.60
2018-06-12T07:50:47.414Z,36.04
2018-06-12T07:53:13.707Z,36.02
2018-06-12T07:55:40.058Z,37.11
2018-06-12T07:58:06.352Z,36.71
2018-06-12T08:00:32.649Z,36.08
2018-06-12T08:02:59.039Z,36.10
2018-06-12T08:05:25.338Z,35.91
2018-06-12T08:07:51.675Z,35.51
2018-06-12T08:10:18.012Z,36.33
2018-06-12T08:12:44.338Z,35.41
2018-06-12T08:15:10.605Z,35.67
2018-06-12T08:17:36.890Z,35.28
2018-06-12T08:20:03.186Z,35.55
2018-06-12T08:22:29.523Z,36.01
2018-06-12T08:24:55.807Z,35.75
2018-06-12T08:27:22.136Z,36.03
2018-06-12T08:29:48.461Z,35.73
2018-06-12T08:32:14.730Z,34.70
2018-06-12T08:34:41.033Z,35.30
2018-06-12T08:37:07.322Z,34.62
2018-06-12T08:39:33.607Z,34.91
2018-06-12T08:41:59.959Z,34.90
2018-06-12T08:44:26.300Z,35.61
2018-06-12T08:46:52.586Z,36.19
2018-06-12T08:49:18.915Z,35.70
2018-06-12T08:51:45.203Z,35.40
2018-06-12T08:54:11.492Z,34.46
2018-06-12T08:56:37.822Z,34.92
2018-06-12T08:59:04.106Z,34.36
2018-06-12T09:01:30.434Z,34.65
2018-06-12T09:03:56.724Z,35.19
2018-06-12T09:06:23.072Z,35.40
2018-06-12T09:08:49.358Z,34.57
2018-06-12T09:11:15.644Z,34.67
2018-06-12T09:13:41.938Z,34.06
2018-06-12T09:16:08.228Z,34.01
2018-06-12T09:18:34.519Z,34.79
2018-06-12T09:21:00.809Z,34.18
2018-06-12T09:23:27.099Z,34.56
2018-06-12T09:25:53.388Z,34.05
2018-06-12T09:28:19.676Z,33.36
2018-06-12T09:30:45.969Z,33.59
2018-06-12T09:33:12.265Z,33.63
2018-06-12T09:35:38.550Z,33.68
2018-06-12T09:38:04.846Z,33.53
2018-06-12T09:40:31.135Z,33.87
2018-06-12T09:42:57.430Z,33.47
2018-06-12T09:45:23.722Z,33.07
2018-06-12T09:47:50.014Z,32.57
2018-06-12T09:50:16.299Z,32.93
2018-06-12T09:52:42.599Z,33.07
2018-06-12T09:55:08.879Z,33.24
2018-06-12T09:57:35.190Z,33.50
2018-06-12T10:00:01.490Z,33.11
2018-06-12T10:02:27.820Z,31.88
2018-06-12T10:04:54.103Z,32.71
2018-06-12T10:07:20.434Z,33.14
2018-06-12T10:09:46.770Z,32.18
2018-06-12T10:12:13.051Z,31.29
2018-06-12T10:14:39.347Z,30.36
2018-06-12T10:17:05.677Z,30.72
2018-06-12T10:19:31.968Z,31.12
2018-06-12T10:21:58.304Z,30.87
2018-06-12T10:24:24.627Z,31.55
2018-06-12T10:26:50.916Z,30.54
2018-06-12T10:29:17.211Z,31.40
2018-06-12T10:31:43.504Z,31.13
2018-06-12T10:34:09.795Z,31.30
2018-06-12T10:36:36.143Z,31.93
2018-06-12T10:39:02.431Z,31.76
2018-06-12T10:41:28.717Z,32.44
2018-06-12T10:43:55.007Z,31.42
2018-06-12T10:46:21.305Z,31.79
2018-06-12T10:48:47.592Z,31.97
2018-06-12T10:51:13.879Z,31.05
2018-06-12T10:53:40.165Z,31.82
2018-06-12T10:56:06.458Z,31.55
2018-06-12T10:58:32.748Z,30.75
2018-06-12T11:00:59.044Z,31.59
2018-06-12T11:03:25.342Z,32.52
2018-06-12T11:05:51.631Z,31.85
2018-06-12T11:08:17.920Z,32.12
2018-06-12T11:10:44.228Z,31.75
2018-06-12T11:13:10.510Z,31.63
2018-06-12T11:15:36.800Z,31.24
2018-06-12T11:18:03.100Z,30.93
2018-06-12T11:20:29.381Z,30.61
2018-06-12T11:22:55.671Z,30.54
2018-06-12T11:25:21.969Z,30.31
2018-06-12T11:27:48.261Z,30.13
2018-06-12T11:30:14.653Z,30.34
2018-06-12T11:32:40.898Z,30.14
2018-06-12T11:35:07.196Z,31.30
2018-06-12T11:37:33.484Z,30.94
2018-06-12T11:39:59.775Z,30.70
2018-06-12T11:42:26.111Z,30.37
2018-06-12T11:44:52.400Z,31.30
2018-06-12T11:47:18.696Z,31.11
2018-06-12T11:49:44.992Z,31.41
2018-06-12T11:52:11.284Z,31.15
2018-06-12T11:54:37.582Z,31.79
2018-06-12T11:57:03.911Z,32.21
2018-06-12T11:59:30.198Z,31.42
2018-06-12T12:01:56.487Z,31.38
2018-06-12T12:04:22.781Z,31.81
2018-06-12T12:06:49.071Z,32.28
2018-06-12T12:09:15.368Z,31.50
2018-06-12T12:11:41.651Z,31.53
2018-06-12T12:14:07.947Z,31.47
2018-06-12T12:16:34.246Z,31.23
2018-06-12T12:19:00.581Z,32.53
2018-06-12T12:21:26.867Z,32.46
2018-06-12T12:23:53.170Z,32.80
2018-06-12T12:26:19.471Z,33.33
2018-06-12T12:28:45.832Z,33.06
2018-06-12T12:31:12.064Z,32.39
2018-06-12T12:33:38.358Z,32.39
2018-06-12T12:36:04.653Z,31.75
2018-06-12T12:38:30.950Z,32.52
2018-06-12T12:40:57.249Z,32.45
2018-06-12T12:43:23.534Z,33.04
2018-06-12T12:45:49.956Z,32.68
2018-06-12T12:48:16.333Z,31.57
2018-06-12T12:50:42.577Z,31.16
2018-06-12T12:53:08.947Z,30.83
2018-06-12T12:55:35.162Z,30.57
2018-06-12T12:58:01.473Z,30.12
2018-06-12T13:00:27.765Z,30.51
2018-06-12T13:02:54.055Z,30.05
2018-06-12T13:05:20.346Z,30.44
2018-06-12T13:07:46.700Z,31.16
2018-06-12T13:10:13.028Z,30.55
2018-06-12T13:12:39.314Z,29.84
2018-06-12T13:15:05.645Z,29.98
2018-06-12T13:17:31.937Z,29.37
2018-06-12T13:19:58.231Z,28.94
2018-06-12T13:22:24.529Z,28.14
2018-06-12T13:24:50.842Z,26.12
2018-06-12T13:27:17.178Z,26.99
2018-06-12T13:29:43.469Z,27.40
2018-06-12T13:32:09.765Z,28.46
2018-06-12T13:34:36.062Z,30.28
2018-06-12T13:37:02.355Z,31.72
2018-06-12T13:39:28.647Z,32.92
2018-06-12T13:41:54.947Z,33.21
2018-06-12T13:44:21.257Z,33.20
2018-06-12T13:46:47.568Z,33.61
2018-06-12T13:49:13.866Z,33.67
2018-06-12T13:51:40.159Z,33.46
2018-06-12T13:54:06.449Z,33.52
2018-06-12T13:56:32.791Z,33.90
2018-06-12T13:58:59.031Z,33.83
2018-06-12T14:01:25.328Z,34.12
2018-06-12T14:03:51.629Z,34.35
2018-06-12T14:06:17.916Z,34.89
2018-06-12T14:08:44.198Z,34.93
2018-06-12T14:11:10.503Z,35.11
2018-06-12T14:13:37.051Z,34.71
2018-06-12T14:16:03.105Z,34.84
2018-06-12T14:18:29.392Z,34.24
2018-06-12T14:20:55.694Z,34.45
2018-06-12T14:23:21.989Z,34.79
2018-06-12T14:25:48.321Z,35.91
2018-06-12T14:28:14.635Z,36.47
2018-06-12T14:30:40.937Z,37.12
2018-06-12T14:33:07.273Z,36.77
2018-06-12T14:35:33.582Z,36.54
2018-06-12T14:37:59.879Z,36.02
2018-06-12T14:40:26.194Z,36.82
2018-06-12T14:42:52.489Z,36.72
2018-06-12T14:45:18.777Z,37.13
2018-06-12T14:47:45.071Z,37.82
2018-06-12T14:50:11.414Z,38.22
2018-06-12T14:52:37.728Z,38.25
2018-06-12T14:55:04.045Z,38.33
2018-06-12T14:57:30.341Z,38.32
2018-06-12T14:59:56.634Z,38.23
2018-06-12T15:02:22.929Z,38.54
2018-06-12T15:04:49.225Z,38.57
2018-06-12T15:07:15.520Z,38.77
2018-06-12T15:09:41.822Z,38.84
2018-06-12T15:12:08.112Z,39.01
2018-06-12T15:14:34.403Z,38.79
2018-06-12T15:17:00.732Z,39.07
2018-06-12T15:19:27.069Z,39.52
2018-06-12T15:21:53.363Z,39.64
2018-06-12T15:24:19.658Z,39.65
2018-06-12T15:26:45.973Z,39.31
2018-06-12T15:29:12.270Z,39.25
2018-06-12T15:31:38.608Z,39.60
2018-06-12T15:34:04.897Z,39.62
2018-06-12T15:36:31.188Z,39.69
2018-06-12T15:38:57.589Z,40.12
2018-06-12T15:41:23.789Z,40.38
2018-06-12T15:43:50.396Z,40.78
2018-06-12T15:46:16.703Z,40.82
2018-06-12T15:48:42.990Z,40.43
2018-06-12T15:51:09.290Z,40.42
2018-06-12T15:53:35.617Z,40.17
2018-06-12T15:56:01.875Z,40.38
2018-06-12T15:58:28.173Z,40.01
2018-06-12T16:00:54.463Z,39.59
2018-06-12T16:03:20.751Z,39.45
2018-06-12T16:05:47.038Z,39.63
2018-06-12T16:08:13.337Z,40.18
2018-06-12T16:10:39.633Z,39.84
2018-06-12T16:13:05.939Z,40.01
2018-06-12T16:15:32.239Z,39.51
2018-06-12T16:17:58.527Z,39.39
2018-06-12T16:20:24.821Z,39.63
2018-06-12T16:22:51.122Z,39.88
2018-06-12T16:25:17.428Z,40.31
2018-06-12T16:27:43.716Z,40.52
2018-06-12T16:30:10.023Z,40.48
2018-06-12T16:32:36.314Z,41.08
2018-06-12T16:35:02.615Z,41.10
2018-06-12T16:37:29.065Z,41.16
2018-06-12T16:39:55.352Z,41.27
2018-06-12T16:42:21.651Z,41.02
2018-06-12T16:44:47.944Z,41.09
2018-06-12T16:47:14.231Z,41.24
2018-06-12T16:49:40.528Z,41.86
2018-06-12T16:52:06.826Z,42.31
2018-06-12T16:54:33.160Z,41.84
2018-06-12T16:56:59.450Z,41.73
2018-06-12T16:59:25.745Z,41.21
2018-06-12T17:01:52.042Z,41.58
2018-06-12T17:04:18.330Z,41.92
2018-06-12T17:06:44.632Z,42.18
2018-06-12T17:09:10.918Z,42.83
2018-06-12T17:11:37.220Z,41.75
2018-06-12T17:14:03.516Z,41.87
2018-06-12T17:16:29.867Z,41.59
2018-06-12T17:18:56.105Z,41.82
2018-06-12T17:21:22.400Z,42.02
2018-06-12T17:23:48.699Z,42.13
2018-06-12T17:26:14.991Z,42.18
2018-06-12T17:28:41.287Z,42.45
2018-06-12T17:31:07.571Z,43.54
2018-06-12T17:33:33.900Z,44.63
2018-06-12T17:36:00.232Z,45.38
2018-06-12T17:38:26.527Z,45.88
2018-06-12T17:40:52.845Z,46.53
2018-06-12T17:43:19.139Z,46.77
2018-06-12T17:45:45.423Z,47.43
2018-06-12T17:48:11.723Z,47.50
2018-06-12T17:50:38.014Z,47.74
2018-06-12T17:53:04.309Z,47.94
2018-06-12T17:55:30.595Z,48.25
2018-06-12T17:57:56.891Z,48.54
2018-06-12T18:00:23.190Z,48.68
2018-06-12T18:02:49.484Z,48.72
2018-06-12T18:05:15.783Z,48.98
2018-06-12T18:07:42.072Z,48.96
2018-06-12T18:10:08.374Z,48.96
2018-06-12T18:12:34.652Z,48.98
2018-06-12T18:15:00.946Z,49.05
2018-06-12T18:17:27.231Z,49.17
2018-06-12T18:19:53.533Z,49.43
2018-06-12T18:22:19.821Z,49.69
2018-06-12T18:24:46.197Z,49.92
2018-06-12T18:27:12.414Z,50.36
2018-06-12T18:29:38.710Z,50.80
2018-06-12T18:32:05.000Z,51.57
2018-06-12T18:34:31.287Z,51.94
2018-06-12T18:36:57.598Z,52.27
2018-06-12T18:39:23.887Z,52.59
2018-06-12T18:41:50.180Z,53.31
2018-06-12T18:44:16.508Z,53.82
2018-06-12T18:46:42.810Z,54.32
2018-06-12T18:49:09.110Z,54.85
2018-06-12T18:51:35.407Z,55.10
2018-06-12T18:54:01.697Z,55.57
2018-06-12T18:56:27.988Z,55.87
2018-06-12T18:58:54.318Z,56.09
2018-06-12T19:01:21.016Z,56.13
2018-06-12T19:03:47.310Z,56.31
2018-06-12T19:06:13.598Z,56.35
2018-06-12T19:08:39.887Z,56.76
2018-06-12T19:11:06.214Z,56.94
2018-06-12T19:13:32.557Z,57.02
2018-06-12T19:15:58.805Z,57.23
2018-06-12T19:18:25.130Z,57.32
2018-06-12T19:20:51.453Z,57.39
2018-06-12T19:23:17.743Z,57.63
2018-06-12T19:25:44.043Z,58.06
2018-06-12T19:28:10.365Z,58.51
2018-06-12T19:30:36.623Z,58.44
2018-06-12T19:33:02.921Z,58.61
2018-06-12T19:35:29.212Z,59.05
2018-06-12T19:37:55.511Z,59.51
2018-06-12T19:40:21.798Z,60.03
2018-06-12T19:42:48.127Z,60.44
2018-06-12T19:45:14.428Z,60.54
2018-06-12T19:47:40.733Z,60.75
2018-06-12T19:50:07.022Z,60.99
2018-06-12T19:52:33.311Z,61.44
2018-06-12T19:54:59.606Z,61.80
2018-06-12T19:57:25.894Z,62.34
2018-06-12T19:59:52.190Z,62.40
2018-06-12T20:02:18.485Z,62.14
2018-06-12T20:04:44.830Z,62.34
2018-06-12T20:07:11.125Z,61.85
2018-06-12T20:09:37.417Z,62.12
2018-06-12T20:12:03.761Z,62.20
2018-06-12T20:14:30.047Z,61.26
2018-06-12T20:16:56.331Z,61.43
2018-06-12T20:19:22.682Z,60.67
2018-06-12T20:21:48.977Z,60.32
2018-06-12T20:24:15.264Z,60.30
2018-06-12T20:26:41.560Z,60.08
2018-06-12T20:29:07.847Z,60.49
2018-06-12T20:31:34.134Z,60.80
2018-06-12T20:34:00.429Z,60.78
2018-06-12T20:36:26.767Z,61.27
2018-06-12T20:38:53.030Z,61.39
2018-06-12T20:41:19.320Z,61.85
2018-06-12T20:43:45.609Z,62.46
2018-06-12T20:46:11.904Z,62.52
2018-06-12T20:48:38.195Z,62.77
2018-06-12T20:51:04.495Z,63.38
2018-06-12T20:53:30.782Z,63.74
2018-06-12T20:55:57.077Z,63.97
2018-06-12T20:58:23.362Z,63.88
2018-06-12T21:00:49.652Z,64.00
2018-06-12T21:03:15.944Z,63.64
2018-06-12T21:05:42.242Z,63.64
2018-06-12T21:08:08.531Z,63.87
2018-06-12T21:10:34.828Z,64.07
2018-06-12T21:13:01.160Z,64.20
2018-06-12T21:15:27.454Z,64.42
2018-06-12T21:17:53.745Z,64.76
2018-06-12T21:20:20.051Z,65.25
2018-06-12T21:22:46.344Z,65.65
2018-06-12T21:25:12.671Z,65.26
2018-06-12T21:27:38.970Z,65.23
2018-06-12T21:30:05.303Z,65.17
2018-06-12T21:32:31.601Z,65.39
2018-06-12T21:34:57.896Z,64.75
2018-06-12T21:37:24.196Z,65.09
2018-06-12T21:39:50.505Z,65.70
2018-06-12T21:42:16.787Z,65.76
2018-06-12T21:44:43.086Z,66.11
2018-06-12T21:47:09.862Z,65.84
2018-06-12T21:49:36.163Z,65.68
2018-06-12T21:52:02.458Z,65.87
2018-06-12T21:54:28.765Z,65.48
2018-06-12T21:56:55.059Z,65.55
2018-06-12T21:59:21.353Z,65.20
2018-06-12T22:01:47.645Z,65.54
2018-06-12T22:04:13.945Z,65.24
2018-06-12T22:06:40.277Z,65.49
2018-06-12T22:09:06.573Z,65.84
2018-06-12T22:11:32.876Z,65.97
2018-06-12T22:13:59.158Z,65.87
2018-06-12T22:16:25.449Z,66.25
2018-06-12T22:18:51.782Z,66.16
2018-06-12T22:21:18.078Z,66.37
2018-06-12T22:23:44.464Z,66.27
2018-06-12T22:26:10.757Z,66.49
2018-06-12T22:28:37.095Z,66.71
2018-06-12T22:31:03.365Z,66.56
2018-06-12T22:33:29.651Z,66.71
2018-06-12T22:35:55.953Z,67.09
2018-06-12T22:38:22.246Z,67.31
2018-06-12T22:40:48.540Z,67.34
2018-06-12T22:43:14.831Z,67.75
2018-06-12T22:45:41.182Z,68.08
2018-06-12T22:48:07.456Z,68.62
2018-06-12T22:50:33.754Z,69.03
2018-06-12T22:53:00.056Z,69.12
2018-06-12T22:55:26.350Z,69.58
2018-06-12T22:57:52.653Z,69.67
2018-06-12T23:00:18.941Z,69.94
2018-06-12T23:02:45.246Z,70.22
2018-06-12T23:05:11.589Z,69.79
2018-06-12T23:07:37.879Z,70.03
2018-06-12T23:10:04.180Z,70.15
2018-06-12T23:12:30.472Z,70.32
2018-06-12T23:14:56.803Z,70.27
2018-06-12T23:17:23.117Z,69.91
2018-06-12T23:19:49.442Z,70.01
2018-06-12T23:22:15.733Z,69.78
2018-06-12T23:24:42.023Z,70.02
2018-06-12T23:27:08.361Z,70.11
2018-06-12T23:29:34.643Z,70.19
2018-06-12T23:32:00.932Z,70.13
2018-06-12T23:34:27.215Z,70.12
2018-06-12T23:36:53.540Z,70.07
2018-06-12T23:39:19.911Z,70.01
2018-06-12T23:41:46.126Z,69.93
2018-06-12T23:44:12.434Z,70.01
2018-06-12T23:46:38.760Z,70.26
2018-06-12T23:49:05.059Z,70.13
2018-06-12T23:51:31.354Z,70.25
2018-06-12T23:53:57.657Z,70.32
2018-06-12T23:56:23.971Z,70.49
2018-06-12T23:58:50.314Z,70.58
